Evansville Regional Airport
KEVV : now visible

Airfield :











YOU CAN JOIN US ON...

 
LOGIN :

Register | Disclaimer

   EN    FR    IT 

 









Legend :    VFR   Marginal VFR   IFR   Intensive IFR   Very Intensive IFR
Visi :
Ceiling :
>= 8 km
>= 3000ft
5 to 8 km
1000 to 3000 ft
1500m to 5 km
500 to 1000 ft
800 to 1500m
200 to 500 ft
< 800m
< 200 ft
Symbols :   Thunderstorms  Fog  Heavy snow  Heavy precipitations  Wind > 20 kt






- Airport Elevation : 418 ft
- IATA code : EVV


KEVV - Evansville Regional

CURRENT METAR :
  • 141254Z 22005KT 10SM OVC075 00/M06 A3024 RMK AO2 SLP245 T00001056

EXPIRED METARs :
  • 141154Z 21007KT 10SM OVC075 01/M06 A3022 RMK AO2 SLP238 T00061056 10006 21017 53008
  • 141054Z AUTO 20006KT 10SM OVC100 01/M06 A3020 RMK AO2 SLP232 T00061061

TAF KEVV
Valid from the 14 at 12:00 until the 15 at 12:00 UTC


141140Z 1412/1512 VRB04KT P6SM BKN100
FM141700 24005KT P6SM SCT200
FM142000 27005KT P6SM SCT200
FM150300 VRB03KT P6SM BKN025
FM150500 VRB03KT P6SM BKN015



MET'MAP, your aeronautical weather chart ! - Copyright ORBIFLY December 2007 - Disclaimer

ORBIFLY MET'MAP TEAM :

Programming & Development : Alexandra Zaïnal
Concept & Development : Baudouin d'Aumeries
Co-Development & Prog : Marc-Olivier Méhu
Technical & hardware support : Manuel Goepfert

Contact : metmap@orbifly.com




SOURCES & CREDITS :

   NOAA       Earth
Advisory